createdAt,value
2018-08-16T00:00:54.176Z,101603.62
2018-08-16T00:03:24.088Z,101603.53
2018-08-16T00:05:54.104Z,101608.16
2018-08-16T00:08:24.302Z,101604.98
2018-08-16T00:10:54.101Z,101604.50
2018-08-16T00:13:24.231Z,101604.34
2018-08-16T00:15:54.322Z,101598.94
2018-08-16T00:18:24.365Z,101599.74
2018-08-16T00:20:54.405Z,101595.14
2018-08-16T00:23:24.430Z,101596.23
2018-08-16T00:25:54.336Z,101594.08
2018-08-16T00:28:24.364Z,101598.69
2018-08-16T00:30:54.226Z,101602.31
2018-08-16T00:33:24.139Z,101599.31
2018-08-16T00:35:54.114Z,101598.25
2018-08-16T00:38:24.182Z,101596.83
2018-08-16T00:40:54.088Z,101599.84
2018-08-16T00:43:23.951Z,101595.53
2018-08-16T00:45:53.904Z,101596.42
2018-08-16T00:48:23.788Z,101590.95
2018-08-16T00:50:53.798Z,101600.30
2018-08-16T00:53:23.657Z,101589.34
2018-08-16T00:55:54.185Z,101592.05
2018-08-16T00:58:24.180Z,101594.11
2018-08-16T01:00:54.288Z,101591.98
2018-08-16T01:03:24.276Z,101589.42
2018-08-16T01:05:54.081Z,101588.08
2018-08-16T01:08:23.891Z,101585.32
2018-08-16T01:10:53.696Z,101579.80
2018-08-16T01:13:23.610Z,101591.45
2018-08-16T01:15:53.558Z,101583.36
2018-08-16T01:18:23.436Z,101586.66
2018-08-16T01:20:53.484Z,101589.64
2018-08-16T01:23:23.319Z,101586.59
2018-08-16T01:25:53.358Z,101583.96
2018-08-16T01:28:23.328Z,101583.91
2018-08-16T01:30:53.232Z,101582.58
2018-08-16T01:33:23.297Z,101585.13
2018-08-16T01:35:53.328Z,101577.13
2018-08-16T01:38:23.300Z,101577.72
2018-08-16T01:40:53.401Z,101583.19
2018-08-16T01:43:23.355Z,101575.58
2018-08-16T01:45:53.263Z,101577.64
2018-08-16T01:48:23.080Z,101573.59
2018-08-16T01:50:52.998Z,101573.82
2018-08-16T01:53:22.882Z,101581.14
2018-08-16T01:55:52.810Z,101572.78
2018-08-16T01:58:22.600Z,101581.69
2018-08-16T02:00:52.667Z,101573.82
2018-08-16T02:03:22.735Z,101577.31
2018-08-16T02:05:52.781Z,101573.82
2018-08-16T02:08:22.825Z,101572.78
2018-08-16T02:10:52.614Z,101573.05
2018-08-16T02:13:23.466Z,101568.83
2018-08-16T02:15:53.360Z,101564.23
2018-08-16T02:18:23.363Z,101564.30
2018-08-16T02:20:53.372Z,101558.11
2018-08-16T02:23:23.202Z,101558.19
2018-08-16T02:25:53.126Z,101561.98
2018-08-16T02:28:22.964Z,101559.77
2018-08-16T02:30:53.004Z,101558.68
2018-08-16T02:33:22.880Z,101560.34
2018-08-16T02:35:52.941Z,101555.17
2018-08-16T02:38:22.932Z,101555.50
2018-08-16T02:40:52.996Z,101557.16
2018-08-16T02:43:22.908Z,101551.52
2018-08-16T02:45:52.697Z,101547.30
2018-08-16T02:48:22.626Z,101545.78
2018-08-16T02:50:52.523Z,101534.05
2018-08-16T02:53:22.681Z,101536.60
2018-08-16T02:55:52.805Z,101533.42
2018-08-16T02:58:22.729Z,101535.80
2018-08-16T03:00:52.838Z,101535.97
2018-08-16T03:03:22.691Z,101533.98
2018-08-16T03:05:52.604Z,101533.43
2018-08-16T03:08:22.822Z,101531.05
2018-08-16T03:10:52.758Z,101531.28
2018-08-16T03:13:22.524Z,101527.17
2018-08-16T03:15:52.356Z,101526.14
2018-08-16T03:18:22.396Z,101518.76
2018-08-16T03:20:52.386Z,101519.24
2018-08-16T03:23:22.180Z,101522.42
2018-08-16T03:25:52.244Z,101506.14
2018-08-16T03:28:22.023Z,101512.50
2018-08-16T03:30:51.845Z,101508.83
2018-08-16T03:33:21.900Z,101513.75
2018-08-16T03:35:51.788Z,101504.39
2018-08-16T03:38:21.756Z,101508.13
2018-08-16T03:40:51.586Z,101508.61
2018-08-16T03:43:21.583Z,101501.44
2018-08-16T03:45:51.506Z,101497.97
2018-08-16T03:48:21.373Z,101502.95
2018-08-16T03:50:51.396Z,101509.38
2018-08-16T03:53:21.304Z,101509.96
2018-08-16T03:55:51.331Z,101506.52
2018-08-16T03:58:21.236Z,101506.45
2018-08-16T04:00:51.352Z,101498.19
2018-08-16T04:03:21.587Z,101502.17
2018-08-16T04:05:51.590Z,101502.41
2018-08-16T04:08:21.384Z,101500.09
2018-08-16T04:10:51.382Z,101503.75
2018-08-16T04:13:21.238Z,101502.63
2018-08-16T04:15:51.068Z,101504.95
2018-08-16T04:18:20.961Z,101504.87
2018-08-16T04:20:50.788Z,101507.48
2018-08-16T04:23:20.684Z,101516.22
2018-08-16T04:25:50.627Z,101512.66
2018-08-16T04:28:20.719Z,101511.30
2018-08-16T04:30:50.589Z,101514.55
2018-08-16T04:33:20.482Z,101511.70
2018-08-16T04:35:50.353Z,101518.92
2018-08-16T04:38:20.177Z,101514.72
2018-08-16T04:40:50.184Z,101518.98
2018-08-16T04:43:19.971Z,101522.17
2018-08-16T04:45:50.127Z,101510.83
2018-08-16T04:48:19.992Z,101518.28
2018-08-16T04:50:49.981Z,101519.80
2018-08-16T04:53:19.884Z,101524.87
2018-08-16T04:55:49.917Z,101522.02
2018-08-16T04:58:19.777Z,101522.40
2018-08-16T05:00:49.745Z,101518.67
2018-08-16T05:03:19.771Z,101529.30
2018-08-16T05:05:49.529Z,101520.59
2018-08-16T05:08:19.480Z,101525.09
2018-08-16T05:10:49.285Z,101523.35
2018-08-16T05:13:19.076Z,101525.02
2018-08-16T05:15:49.020Z,101526.77
2018-08-16T05:18:18.941Z,101518.63
2018-08-16T05:20:48.831Z,101522.03
2018-08-16T05:23:18.795Z,101530.28
2018-08-16T05:25:48.670Z,101529.81
2018-08-16T05:28:18.460Z,101530.06
2018-08-16T05:30:48.345Z,101521.86
2018-08-16T05:33:18.232Z,101527.66
2018-08-16T05:35:48.097Z,101525.66
2018-08-16T05:38:17.996Z,101519.86
2018-08-16T05:40:48.026Z,101526.33
2018-08-16T05:43:18.371Z,101524.03
2018-08-16T05:45:48.414Z,101529.33
2018-08-16T05:48:18.348Z,101530.65
2018-08-16T05:50:48.224Z,101526.09
2018-08-16T05:53:18.097Z,101523.05
2018-08-16T05:55:47.965Z,101512.16
2018-08-16T05:58:17.891Z,101516.25
2018-08-16T06:00:47.908Z,101514.52
2018-08-16T06:03:17.818Z,101507.58
2018-08-16T06:05:47.793Z,101517.41
2018-08-16T06:08:17.543Z,101516.33
2018-08-16T06:10:47.367Z,101515.13
2018-08-16T06:13:17.281Z,101511.20
2018-08-16T06:15:47.209Z,101506.15
2018-08-16T06:18:17.146Z,101506.81
2018-08-16T06:20:47.069Z,101493.30
2018-08-16T06:23:17.024Z,101489.85
2018-08-16T06:25:46.988Z,101484.12
2018-08-16T06:28:16.941Z,101488.09
2018-08-16T06:30:46.784Z,101485.31
2018-08-16T06:33:16.717Z,101480.05
2018-08-16T06:35:46.619Z,101487.10
2018-08-16T06:38:16.738Z,101486.90
2018-08-16T06:40:46.933Z,101486.51
2018-08-16T06:43:17.211Z,101483.59
2018-08-16T06:45:47.336Z,101485.84
2018-08-16T06:48:17.518Z,101475.46
2018-08-16T06:50:47.581Z,101475.95
2018-08-16T06:53:17.906Z,101479.12
2018-08-16T06:55:47.897Z,101483.19
2018-08-16T06:58:17.833Z,101484.32
2018-08-16T07:00:47.857Z,101481.17
2018-08-16T07:03:17.733Z,101476.56
2018-08-16T07:05:47.581Z,101477.47
2018-08-16T07:08:17.736Z,101468.78
2018-08-16T07:10:47.622Z,101476.11
2018-08-16T07:13:17.701Z,101470.80
2018-08-16T07:15:47.857Z,101473.60
2018-08-16T07:18:17.760Z,101474.96
2018-08-16T07:20:47.579Z,101471.67
2018-08-16T07:23:18.023Z,101469.17
2018-08-16T07:25:47.927Z,101473.45
2018-08-16T07:28:17.999Z,101470.53
2018-08-16T07:30:47.969Z,101470.60
2018-08-16T07:33:17.852Z,101468.09
2018-08-16T07:35:47.752Z,101468.30
2018-08-16T07:38:18.227Z,101465.69
2018-08-16T07:40:48.179Z,101466.79
2018-08-16T07:43:18.181Z,101469.95
2018-08-16T07:45:50.010Z,101466.75
2018-08-16T07:48:20.220Z,101463.58
2018-08-16T07:50:50.165Z,101473.03
2018-08-16T07:53:20.155Z,101472.88
2018-08-16T07:55:50.495Z,101466.33
2018-08-16T07:58:22.301Z,101472.31
2018-08-16T08:00:52.251Z,101469.34
2018-08-16T08:03:22.620Z,101468.75
2018-08-16T08:05:52.609Z,101471.23
2018-08-16T08:08:22.512Z,101469.86
2018-08-16T08:10:52.510Z,101465.35
2018-08-16T08:13:22.486Z,101471.38
2018-08-16T08:15:52.458Z,101471.30
2018-08-16T08:18:22.623Z,101468.18
2018-08-16T08:20:52.604Z,101467.09
2018-08-16T08:23:22.553Z,101468.66
2018-08-16T08:25:52.730Z,101467.22
2018-08-16T08:28:22.717Z,101457.67
2018-08-16T08:30:52.789Z,101449.78
2018-08-16T08:33:22.691Z,101455.16
2018-08-16T08:37:06.973Z,101455.16
2018-08-16T08:39:36.776Z,101444.69
2018-08-16T08:42:06.631Z,101443.00
2018-08-16T08:44:36.737Z,101441.86
2018-08-16T08:47:06.907Z,101439.53
2018-08-16T08:49:36.847Z,101432.48
2018-08-16T08:52:07.070Z,101436.84
2018-08-16T08:54:55.859Z,101425.48
2018-08-16T08:57:42.459Z,101425.13
2018-08-16T09:00:12.436Z,101429.03
2018-08-16T09:02:42.359Z,101421.53
2018-08-16T09:05:12.231Z,101421.85
2018-08-16T09:07:42.437Z,101421.97
2018-08-16T09:11:27.089Z,101417.78
2018-08-16T09:15:15.628Z,101421.05
2018-08-16T09:17:45.646Z,101417.69
2018-08-16T09:20:15.649Z,101412.45
2018-08-16T09:22:45.868Z,101403.39
2018-08-16T09:25:15.740Z,101407.92
2018-08-16T09:27:45.527Z,101399.56
2018-08-16T09:31:31.363Z,101403.09
2018-08-16T09:34:17.749Z,101400.23
2018-08-16T09:36:47.877Z,101397.53
2018-08-16T09:39:17.951Z,101395.44
2018-08-16T09:41:48.196Z,101397.67
2018-08-16T09:44:18.068Z,101393.37
2018-08-16T09:47:11.564Z,101395.44
2018-08-16T09:49:51.528Z,101384.39
2018-08-16T09:52:22.495Z,101380.31
2018-08-16T09:54:52.400Z,101382.25
2018-08-16T09:57:22.261Z,101383.85
2018-08-16T09:59:52.434Z,101377.55
2018-08-16T10:02:22.372Z,101377.03
2018-08-16T10:04:52.311Z,101369.66
2018-08-16T10:07:22.440Z,101373.38
2018-08-16T10:09:52.461Z,101373.16
2018-08-16T10:12:22.364Z,101375.69
2018-08-16T10:14:52.429Z,101374.23
2018-08-16T10:17:22.640Z,101372.66
2018-08-16T10:19:52.976Z,101371.14
2018-08-16T10:22:23.003Z,101368.48
2018-08-16T10:24:53.340Z,101367.72
2018-08-16T10:27:23.191Z,101368.08
2018-08-16T10:29:53.217Z,101360.14
2018-08-16T10:32:23.391Z,101360.02
2018-08-16T10:34:53.478Z,101350.00
2018-08-16T10:37:23.447Z,101355.59
2018-08-16T10:39:53.324Z,101350.52
2018-08-16T10:42:23.093Z,101356.34
2018-08-16T10:44:53.115Z,101351.69
2018-08-16T10:47:23.368Z,101353.17
2018-08-16T10:49:55.117Z,101350.07
2018-08-16T10:52:24.956Z,101351.48
2018-08-16T10:54:55.351Z,101350.15
2018-08-16T10:57:25.355Z,101341.30
2018-08-16T10:59:55.330Z,101342.28
2018-08-16T11:02:25.264Z,101336.26
2018-08-16T11:04:55.345Z,101327.81
2018-08-16T11:07:25.319Z,101325.30
2018-08-16T11:09:55.311Z,101327.57
2018-08-16T11:12:25.208Z,101321.27
2018-08-16T11:14:55.080Z,101317.72
2018-08-16T11:17:24.979Z,101316.80
2018-08-16T11:19:55.251Z,101318.78
2018-08-16T11:22:25.420Z,101318.75
2018-08-16T11:24:55.641Z,101313.82
2018-08-16T11:27:25.561Z,101316.73
2018-08-16T11:29:55.664Z,101317.16
2018-08-16T11:32:25.779Z,101306.14
2018-08-16T11:34:55.642Z,101302.03
2018-08-16T11:37:25.605Z,101301.97
2018-08-16T11:39:55.619Z,101307.74
2018-08-16T11:42:25.507Z,101295.53
2018-08-16T11:44:55.508Z,101295.53
2018-08-16T11:47:25.740Z,101300.84
2018-08-16T11:49:56.041Z,101300.27
2018-08-16T11:52:26.257Z,101289.05
2018-08-16T11:54:56.409Z,101283.39
2018-08-16T11:57:26.479Z,101286.47
2018-08-16T11:59:56.332Z,101286.70
2018-08-16T12:02:26.323Z,101281.59
2018-08-16T12:04:56.267Z,101280.72
2018-08-16T12:07:26.135Z,101288.95
2018-08-16T12:09:55.966Z,101281.11
2018-08-16T12:12:26.265Z,101286.19
2018-08-16T12:14:56.248Z,101277.77
2018-08-16T12:17:26.368Z,101275.38
2018-08-16T12:19:56.463Z,101279.28
2018-08-16T12:22:26.465Z,101275.92
2018-08-16T12:24:56.390Z,101264.01
2018-08-16T12:27:26.512Z,101266.94
2018-08-16T12:29:56.662Z,101257.20
2018-08-16T12:32:27.054Z,101253.69
2018-08-16T12:34:57.184Z,101251.42
2018-08-16T12:37:27.020Z,101245.58
2018-08-16T12:39:56.819Z,101247.14
2018-08-16T12:42:27.016Z,101251.45
2018-08-16T12:44:57.090Z,101250.75
2018-08-16T12:47:27.114Z,101243.81
2018-08-16T12:49:56.926Z,101237.41
2018-08-16T12:52:26.788Z,101232.56
2018-08-16T12:54:57.100Z,101236.09
2018-08-16T12:57:27.267Z,101231.70
2018-08-16T12:59:57.370Z,101233.73
2018-08-16T13:02:27.442Z,101230.84
2018-08-16T13:04:57.706Z,101229.10
2018-08-16T13:07:27.785Z,101219.96
2018-08-16T13:09:57.818Z,101216.87
2018-08-16T13:12:27.670Z,101216.95
2018-08-16T13:14:57.561Z,101222.49
2018-08-16T13:17:27.407Z,101226.80
2018-08-16T13:19:57.197Z,101222.30
2018-08-16T13:22:27.422Z,101222.12
2018-08-16T13:24:57.427Z,101224.09
2018-08-16T13:27:27.659Z,101223.13
2018-08-16T13:29:57.877Z,101226.45
2018-08-16T13:32:28.132Z,101218.23
2018-08-16T13:34:57.899Z,101219.77
2018-08-16T13:37:27.827Z,101207.44
2018-08-16T13:39:57.853Z,101218.98
2018-08-16T13:42:28.203Z,101214.27
2018-08-16T13:44:58.284Z,101209.14
2018-08-16T13:47:28.244Z,101213.13
2018-08-16T13:49:58.100Z,101198.23
2018-08-16T13:52:27.989Z,101194.11
2018-08-16T13:54:57.849Z,101188.34
2018-08-16T13:57:27.731Z,101189.22
2018-08-16T13:59:57.661Z,101191.38
2018-08-16T14:02:27.734Z,101186.30
2018-08-16T14:04:57.597Z,101183.92
2018-08-16T14:07:27.633Z,101176.16
2018-08-16T14:09:57.731Z,101168.23
2018-08-16T14:12:27.879Z,101170.94
2018-08-16T14:14:58.229Z,101164.41
2018-08-16T14:17:28.080Z,101167.26
2018-08-16T14:19:58.188Z,101165.25
2018-08-16T14:22:28.374Z,101164.19
2018-08-16T14:24:58.424Z,101167.52
2018-08-16T14:27:28.462Z,101171.44
2018-08-16T14:29:58.304Z,101165.60
2018-08-16T14:32:28.376Z,101163.78
2018-08-16T14:34:58.405Z,101157.62
2018-08-16T14:37:28.272Z,101160.03
2018-08-16T14:39:58.357Z,101156.69
2018-08-16T14:42:28.460Z,101159.11
2018-08-16T14:44:58.416Z,101163.20
2018-08-16T14:47:28.249Z,101165.84
2018-08-16T14:49:58.342Z,101159.00
2018-08-16T14:52:28.352Z,101156.19
2018-08-16T14:54:58.457Z,101158.70
2018-08-16T14:57:28.272Z,101159.00
2018-08-16T14:59:58.193Z,101157.17
2018-08-16T15:02:27.976Z,101159.31
2018-08-16T15:04:58.402Z,101165.56
2018-08-16T15:07:28.308Z,101157.72
2018-08-16T15:09:58.193Z,101153.20
2018-08-16T15:12:28.078Z,101154.66
2018-08-16T15:14:58.179Z,101157.83
2018-08-16T15:17:28.261Z,101152.70
2018-08-16T15:19:58.104Z,101158.09
2018-08-16T15:22:28.099Z,101155.70
2018-08-16T15:24:57.973Z,101153.36
2018-08-16T15:27:27.909Z,101154.30
2018-08-16T15:29:57.736Z,101160.23
2018-08-16T15:32:27.622Z,101155.97
2018-08-16T15:34:57.596Z,101154.61
2018-08-16T15:37:27.549Z,101153.02
2018-08-16T15:39:57.451Z,101143.64
2018-08-16T15:42:27.293Z,101147.15
2018-08-16T15:44:57.205Z,101143.17
2018-08-16T15:47:27.411Z,101140.83
2018-08-16T15:49:57.291Z,101142.59
2018-08-16T15:52:27.033Z,101138.27
2018-08-16T15:54:56.973Z,101131.04
2018-08-16T15:57:26.795Z,101129.05
2018-08-16T15:59:56.925Z,101129.45
2018-08-16T16:02:26.956Z,101124.95
2018-08-16T16:04:57.041Z,101126.53
2018-08-16T16:07:27.066Z,101122.39
2018-08-16T16:09:57.061Z,101121.41
2018-08-16T16:12:27.276Z,101118.86
2018-08-16T16:14:57.598Z,101120.83
2018-08-16T16:17:27.836Z,101123.16
2018-08-16T16:19:57.739Z,101126.66
2018-08-16T16:22:27.837Z,101121.05
2018-08-16T16:24:57.893Z,101112.58
2018-08-16T16:27:27.968Z,101125.26
2018-08-16T16:29:57.916Z,101122.92
2018-08-16T16:32:27.998Z,101122.89
2018-08-16T16:34:57.941Z,101117.36
2018-08-16T16:37:28.066Z,101119.16
2018-08-16T16:39:58.110Z,101106.00
2018-08-16T16:42:28.254Z,101111.66
2018-08-16T16:44:58.190Z,101107.96
2018-08-16T16:47:28.192Z,101114.22
2018-08-16T16:49:58.294Z,101113.17
2018-08-16T16:52:28.425Z,101109.25
2018-08-16T16:54:58.288Z,101109.11
2018-08-16T16:57:28.375Z,101111.05
2018-08-16T16:59:58.561Z,101107.83
2018-08-16T17:02:28.450Z,101107.91
2018-08-16T17:04:58.556Z,101106.09
2018-08-16T17:07:28.567Z,101106.09
2018-08-16T17:09:58.600Z,101103.55
2018-08-16T17:12:28.552Z,101101.34
2018-08-16T17:14:58.592Z,101106.34
2018-08-16T17:17:28.733Z,101104.06
2018-08-16T17:19:58.604Z,101103.09
2018-08-16T17:22:28.513Z,101102.61
2018-08-16T17:24:58.541Z,101102.42
2018-08-16T17:27:28.946Z,101101.25
2018-08-16T17:29:58.827Z,101104.39
2018-08-16T17:32:28.802Z,101101.36
2018-08-16T17:34:58.767Z,101103.62
2018-08-16T17:37:28.893Z,101107.14
2018-08-16T17:39:58.796Z,101097.96
2018-08-16T17:42:28.939Z,101093.77
2018-08-16T17:45:00.644Z,101100.16
2018-08-16T17:47:30.664Z,101099.48
2018-08-16T17:50:00.639Z,101101.99
2018-08-16T17:52:30.729Z,101099.27
2018-08-16T17:55:00.736Z,101094.28
2018-08-16T17:57:30.984Z,101104.34
2018-08-16T18:00:01.007Z,101102.16
2018-08-16T18:02:31.278Z,101107.11
2018-08-16T18:05:01.175Z,101100.79
2018-08-16T18:07:31.095Z,101102.48
2018-08-16T18:10:01.091Z,101103.56
2018-08-16T18:12:31.059Z,101102.58
2018-08-16T18:15:00.920Z,101108.80
2018-08-16T18:17:30.845Z,101113.65
2018-08-16T18:20:00.741Z,101112.86
2018-08-16T18:22:30.640Z,101110.59
2018-08-16T18:25:00.632Z,101108.41
2018-08-16T18:27:30.667Z,101110.91
2018-08-16T18:30:00.588Z,101111.06
2018-08-16T18:32:30.376Z,101114.17
2018-08-16T18:35:00.192Z,101114.31
2018-08-16T18:37:30.173Z,101111.09
2018-08-16T18:40:00.022Z,101114.31
2018-08-16T18:42:30.191Z,101113.62
2018-08-16T18:45:00.127Z,101110.47
2018-08-16T18:47:30.299Z,101111.83
2018-08-16T18:50:00.215Z,101116.44
2018-08-16T18:52:30.534Z,101116.36
2018-08-16T18:55:00.345Z,101113.78
2018-08-16T18:57:30.447Z,101114.06
2018-08-16T19:00:00.332Z,101117.55
2018-08-16T19:02:30.201Z,101120.83
2018-08-16T19:05:00.261Z,101126.48
2018-08-16T19:07:30.093Z,101123.70
2018-08-16T19:10:00.274Z,101130.17
2018-08-16T19:12:30.357Z,101132.16
2018-08-16T19:15:00.393Z,101133.47
2018-08-16T19:17:30.514Z,101134.46
2018-08-16T19:20:00.416Z,101133.32
2018-08-16T19:22:30.511Z,101129.18
2018-08-16T19:25:00.355Z,101145.59
2018-08-16T19:27:30.347Z,101143.44
2018-08-16T19:30:00.343Z,101146.48
2018-08-16T19:32:30.178Z,101140.90
2018-08-16T19:35:00.208Z,101150.98
2018-08-16T19:37:30.171Z,101147.02
2018-08-16T19:40:00.104Z,101147.98
2018-08-16T19:42:30.115Z,101146.28
2018-08-16T19:45:00.147Z,101145.41
2018-08-16T19:47:29.976Z,101151.05
2018-08-16T19:50:00.025Z,101147.31
2018-08-16T19:52:30.309Z,101147.69
2018-08-16T19:55:00.232Z,101148.55
2018-08-16T19:57:30.424Z,101153.31
2018-08-16T20:00:01.541Z,101154.24
2018-08-16T20:02:31.356Z,101150.83
2018-08-16T20:05:01.833Z,101155.11
2018-08-16T20:07:31.691Z,101157.80
2018-08-16T20:10:01.712Z,101153.05
2018-08-16T20:12:31.647Z,101153.84
2018-08-16T20:15:01.643Z,101161.29
2018-08-16T20:17:31.593Z,101158.94
2018-08-16T20:20:01.521Z,101158.50
2018-08-16T20:22:32.057Z,101155.94
2018-08-16T20:25:01.905Z,101161.23
2018-08-16T20:27:31.786Z,101157.36
2018-08-16T20:30:01.605Z,101164.10
2018-08-16T20:32:31.772Z,101166.96
2018-08-16T20:35:01.580Z,101169.48
2018-08-16T20:37:31.508Z,101167.97
2018-08-16T20:40:01.583Z,101160.23
2018-08-16T20:42:31.436Z,101161.30
2018-08-16T20:45:01.451Z,101161.45
2018-08-16T20:47:31.275Z,101166.66
2018-08-16T20:50:01.185Z,101170.17
2018-08-16T20:52:31.160Z,101170.94
2018-08-16T20:55:01.189Z,101172.89
2018-08-16T20:57:31.184Z,101167.53
2018-08-16T21:00:00.932Z,101175.27
2018-08-16T21:02:31.091Z,101172.06
2018-08-16T21:05:00.983Z,101170.19
2018-08-16T21:07:31.187Z,101170.12
2018-08-16T21:10:01.023Z,101168.99
2018-08-16T21:12:30.815Z,101170.19
2018-08-16T21:15:00.808Z,101166.98
2018-08-16T21:17:30.887Z,101167.39
2018-08-16T21:20:00.705Z,101171.22
2018-08-16T21:22:30.705Z,101167.42
2018-08-16T21:25:00.592Z,101167.98
2018-08-16T21:27:30.598Z,101170.06
2018-08-16T21:30:00.754Z,101169.70
2018-08-16T21:32:30.869Z,101176.12
2018-08-16T21:35:01.054Z,101171.48
2018-08-16T21:37:30.976Z,101172.69
2018-08-16T21:40:00.968Z,101174.13
2018-08-16T21:42:31.051Z,101174.28
2018-08-16T21:45:00.842Z,101175.64
2018-08-16T21:47:30.963Z,101177.55
2018-08-16T21:50:01.192Z,101173.59
2018-08-16T21:52:31.041Z,101178.64
2018-08-16T21:55:00.999Z,101174.74
2018-08-16T21:57:30.936Z,101173.86
2018-08-16T22:00:00.894Z,101175.19
2018-08-16T22:02:30.837Z,101176.66
2018-08-16T22:05:00.803Z,101171.63
2018-08-16T22:08:11.841Z,101180.89
2018-08-16T22:10:43.053Z,101184.16
2018-08-16T22:13:12.943Z,101175.58
2018-08-16T22:15:43.091Z,101180.95
2018-08-16T22:18:13.138Z,101188.47
2018-08-16T22:20:43.100Z,101183.39
2018-08-16T22:23:13.038Z,101180.09
2018-08-16T22:25:42.916Z,101176.48
2018-08-16T22:28:13.000Z,101179.85
2018-08-16T22:30:43.108Z,101179.67
2018-08-16T22:33:12.974Z,101181.02
2018-08-16T22:35:42.921Z,101186.48
2018-08-16T22:38:12.904Z,101183.91
2018-08-16T22:40:43.106Z,101181.36
2018-08-16T22:43:13.177Z,101177.98
2018-08-16T22:45:43.074Z,101182.14
2018-08-16T22:48:12.931Z,101182.67
2018-08-16T22:50:43.159Z,101176.34
2018-08-16T22:53:13.210Z,101184.23
2018-08-16T22:55:43.241Z,101181.52
2018-08-16T22:58:13.056Z,101185.55
2018-08-16T23:00:43.009Z,101186.98
2018-08-16T23:03:12.936Z,101186.36
2018-08-16T23:05:42.877Z,101175.22
2018-08-16T23:08:12.950Z,101171.69
2018-08-16T23:10:42.854Z,101173.06
2018-08-16T23:13:12.845Z,101162.57
2018-08-16T23:15:42.809Z,101160.86
2018-08-16T23:18:12.649Z,101163.81
2018-08-16T23:20:42.644Z,101162.72
2018-08-16T23:23:12.679Z,101151.72
2018-08-16T23:25:42.552Z,101158.78
2018-08-16T23:28:12.908Z,101155.41
2018-08-16T23:30:42.872Z,101150.10
2018-08-16T23:33:12.780Z,101150.69
2018-08-16T23:35:42.807Z,101150.97
2018-08-16T23:38:12.755Z,101152.78
2018-08-16T23:40:42.566Z,101145.55
2018-08-16T23:43:12.560Z,101147.61
2018-08-16T23:45:42.348Z,101149.77
2018-08-16T23:48:26.212Z,101151.89
2018-08-16T23:50:56.097Z,101147.56
2018-08-16T23:53:25.960Z,101147.72
2018-08-16T23:55:56.429Z,101145.29
2018-08-16T23:58:26.389Z,101142.65
